Time;durP1;ratioP1;P1;durP2;ratioP2;P2;SDS_P1;SDS_P2;PMS_P1;PMS_P2;Temp;Humidity;BMP_temperature;BMP_pressure;BME280_temperature;BME280_humidity;BME280_pressure;Samples;Min_cycle;Max_cycle;Signal;HPM_P1;HPM_P2
2022/12/10 00:01:54;;;;;;;71.57;26.07;;;;;;;;;;5054062;28;20174;-78
2022/12/10 00:04:19;;;;;;;64.87;24.67;;;;;;;;;;5054052;28;20197;-78
2022/12/10 00:06:45;;;;;;;68.03;26.30;;;;;;;;;;5036945;28;20186;-78
2022/12/10 00:09:11;;;;;;;70.07;26.40;;;;;;;;;;5035757;28;20246;-79
2022/12/10 00:11:37;;;;;;;75.83;26.57;;;;;;;;;;5052611;28;20613;-78
2022/12/10 00:14:02;;;;;;;66.40;26.37;;;;;;;;;;5045570;28;20174;-78
2022/12/10 00:16:28;;;;;;;67.70;27.37;;;;;;;;;;5049271;28;20186;-78
2022/12/10 00:18:53;;;;;;;70.30;27.70;;;;;;;;;;5052063;28;20209;-78
2022/12/10 00:21:20;;;;;;;64.60;25.20;;;;;;;;;;5043910;28;20530;-78
2022/12/10 00:23:46;;;;;;;72.33;24.80;;;;;;;;;;5054662;28;20564;-79
2022/12/10 00:26:30;;;;;;;73.50;26.87;;;;;;;;;;5053470;28;20246;-78
2022/12/10 00:28:55;;;;;;;76.33;25.17;;;;;;;;;;5055044;28;20547;-78
2022/12/10 00:31:23;;;;;;;71.43;25.63;;;;;;;;;;5052758;28;20185;-78
2022/12/10 00:33:49;;;;;;;79.27;26.93;;;;;;;;;;5053043;28;20686;-78
2022/12/10 00:36:18;;;;;;;73.67;26.77;;;;;;;;;;5053873;28;20186;-79
2022/12/10 00:38:44;;;;;;;67.73;26.00;;;;;;;;;;5028744;28;20647;-78
2022/12/10 00:41:10;;;;;;;78.60;26.30;;;;;;;;;;5053013;28;20181;-78
2022/12/10 00:43:35;;;;;;;74.47;27.37;;;;;;;;;;5035382;28;20206;-78
2022/12/10 00:46:01;;;;;;;77.23;26.93;;;;;;;;;;5050426;28;20260;-78
2022/12/10 00:48:26;;;;;;;79.10;28.27;;;;;;;;;;5053600;28;20631;-78
2022/12/10 00:51:01;;;;;;;76.33;26.63;;;;;;;;;;5035332;28;20162;-79
2022/12/10 00:53:27;;;;;;;66.53;27.13;;;;;;;;;;5052173;28;20169;-78
2022/12/10 00:55:52;;;;;;;88.20;29.47;;;;;;;;;;5051555;28;20174;-79
2022/12/10 00:58:18;;;;;;;85.27;29.30;;;;;;;;;;5027382;28;20240;-79
2022/12/10 01:00:43;;;;;;;89.50;32.30;;;;;;;;;;5044576;28;20201;-79
2022/12/10 01:03:08;;;;;;;92.60;29.57;;;;;;;;;;5050194;28;20215;-79
2022/12/10 01:05:33;;;;;;;72.30;26.33;;;;;;;;;;5049706;28;20711;-80
2022/12/10 01:07:58;;;;;;;91.13;27.47;;;;;;;;;;5051664;28;20704;-79
2022/12/10 01:10:24;;;;;;;82.73;28.53;;;;;;;;;;5032995;28;20209;-78
2022/12/10 01:12:49;;;;;;;85.27;28.27;;;;;;;;;;5051341;28;20169;-79
2022/12/10 01:15:14;;;;;;;82.97;26.50;;;;;;;;;;5050171;28;20181;-78
2022/12/10 01:17:39;;;;;;;70.87;27.07;;;;;;;;;;5031071;28;20170;-78
2022/12/10 01:20:05;;;;;;;87.93;28.07;;;;;;;;;;5049953;28;20205;-78
2022/12/10 01:22:30;;;;;;;79.43;28.53;;;;;;;;;;5032076;28;20181;-79
2022/12/10 01:24:55;;;;;;;92.63;29.17;;;;;;;;;;5049489;28;20576;-79
2022/12/10 01:27:21;;;;;;;94.13;31.17;;;;;;;;;;5042677;28;20540;-79
2022/12/10 01:29:46;;;;;;;81.33;27.47;;;;;;;;;;5031259;28;20201;-79
2022/12/10 01:32:11;;;;;;;91.50;28.63;;;;;;;;;;5035060;28;20173;-79
2022/12/10 01:34:37;;;;;;;93.20;27.40;;;;;;;;;;5053467;28;20195;-79
2022/12/10 01:37:02;;;;;;;107.57;30.47;;;;;;;;;;5051518;28;20181;-80
2022/12/10 01:39:27;;;;;;;87.80;28.33;;;;;;;;;;5033681;28;20247;-78
2022/12/10 01:41:54;;;;;;;80.97;30.00;;;;;;;;;;5033886;28;20174;-78
2022/12/10 01:44:19;;;;;;;94.87;29.70;;;;;;;;;;5038655;28;20201;-79
2022/12/10 01:46:46;;;;;;;104.50;31.30;;;;;;;;;;5050369;28;20169;-79
2022/12/10 01:49:13;;;;;;;110.03;32.07;;;;;;;;;;5049436;28;20197;-78
2022/12/10 01:51:39;;;;;;;92.30;28.20;;;;;;;;;;5051290;28;20174;-78
2022/12/10 01:54:07;;;;;;;99.50;30.40;;;;;;;;;;5052878;28;20181;-78
2022/12/10 01:56:35;;;;;;;111.77;31.10;;;;;;;;;;5052825;28;20247;-79
2022/12/10 01:59:00;;;;;;;107.33;31.73;;;;;;;;;;5032995;28;20331;-79
2022/12/10 02:01:25;;;;;;;76.73;28.40;;;;;;;;;;5051562;28;20268;-78
2022/12/10 02:04:06;;;;;;;95.50;29.13;;;;;;;;;;5052806;28;20251;-79
2022/12/10 02:06:42;;;;;;;112.47;31.63;;;;;;;;;;5033508;28;20165;-78
2022/12/10 02:09:10;;;;;;;72.33;27.33;;;;;;;;;;5034511;28;20203;-78
2022/12/10 02:11:40;;;;;;;106.60;30.90;;;;;;;;;;5046999;28;20560;-79
2022/12/10 02:14:14;;;;;;;87.17;27.80;;;;;;;;;;5051266;28;20177;-79
2022/12/10 02:16:41;;;;;;;99.17;33.00;;;;;;;;;;5030840;28;20311;-79
2022/12/10 02:19:29;;;;;;;101.90;33.17;;;;;;;;;;5051308;28;20223;-79
2022/12/10 02:21:55;;;;;;;88.23;31.33;;;;;;;;;;5030891;28;20189;-79
2022/12/10 02:24:24;;;;;;;127.33;33.37;;;;;;;;;;5049829;28;20576;-79
2022/12/10 02:26:56;;;;;;;110.53;31.27;;;;;;;;;;5048775;28;20166;-78
2022/12/10 02:29:23;;;;;;;118.33;33.40;;;;;;;;;;5051423;28;20216;-78
2022/12/10 02:31:52;;;;;;;122.17;36.37;;;;;;;;;;5051916;28;20549;-78
2022/12/10 02:34:17;;;;;;;124.73;34.73;;;;;;;;;;5052840;28;20229;-79
2022/12/10 02:36:44;;;;;;;101.53;34.30;;;;;;;;;;5052847;28;20251;-78
2022/12/10 02:39:11;;;;;;;100.57;35.43;;;;;;;;;;5051752;28;20206;-78
2022/12/10 02:41:40;;;;;;;97.33;31.87;;;;;;;;;;5052231;28;20201;-79
2022/12/10 02:44:07;;;;;;;139.23;36.13;;;;;;;;;;5032901;28;20205;-78
2022/12/10 02:46:34;;;;;;;153.17;37.00;;;;;;;;;;5033307;28;20588;-78
2022/12/10 02:49:01;;;;;;;139.37;37.00;;;;;;;;;;5052829;28;20261;-78
2022/12/10 02:51:26;;;;;;;137.43;37.13;;;;;;;;;;5033098;28;20262;-78
2022/12/10 02:54:02;;;;;;;105.10;34.90;;;;;;;;;;5049909;28;20667;-79
2022/12/10 02:56:32;;;;;;;137.63;37.03;;;;;;;;;;5047765;28;20169;-78
2022/12/10 02:58:58;;;;;;;140.80;35.97;;;;;;;;;;5044562;28;20663;-78
2022/12/10 03:01:41;;;;;;;145.57;38.07;;;;;;;;;;5052458;28;20185;-78
2022/12/10 03:04:12;;;;;;;172.37;36.57;;;;;;;;;;5056911;28;20204;-78
2022/12/10 03:06:41;;;;;;;142.17;38.00;;;;;;;;;;5036132;28;20642;-78
2022/12/10 03:09:15;;;;;;;145.23;35.70;;;;;;;;;;5038203;28;20577;-78
2022/12/10 03:11:42;;;;;;;145.83;33.40;;;;;;;;;;5055002;28;20172;-78
2022/12/10 03:14:13;;;;;;;147.10;29.77;;;;;;;;;;5054995;28;20660;-78
2022/12/10 03:16:40;;;;;;;105.07;28.00;;;;;;;;;;5055483;28;20209;-78
2022/12/10 03:19:07;;;;;;;132.03;32.80;;;;;;;;;;5047322;28;20292;-79
2022/12/10 03:21:34;;;;;;;132.80;32.73;;;;;;;;;;5034806;28;20185;-78
2022/12/10 03:23:59;;;;;;;116.57;34.50;;;;;;;;;;5054744;28;20225;-79
2022/12/10 03:26:25;;;;;;;135.33;33.03;;;;;;;;;;5037012;28;20252;-79
2022/12/10 03:28:53;;;;;;;119.27;31.03;;;;;;;;;;5037493;28;20193;-78
2022/12/10 03:31:19;;;;;;;105.30;29.63;;;;;;;;;;5050895;28;20170;-78
2022/12/10 03:33:46;;;;;;;125.27;29.60;;;;;;;;;;5036482;28;20629;-78
2022/12/10 03:36:12;;;;;;;122.33;28.00;;;;;;;;;;5054894;28;20202;-79
2022/12/10 03:38:38;;;;;;;114.60;28.47;;;;;;;;;;5054410;28;20216;-79
2022/12/10 03:41:03;;;;;;;119.53;27.73;;;;;;;;;;5054122;28;20166;-79
2022/12/10 03:43:29;;;;;;;106.07;27.40;;;;;;;;;;5036976;28;20178;-78
2022/12/10 03:45:54;;;;;;;139.80;32.70;;;;;;;;;;5055279;28;20177;-78
2022/12/10 03:48:19;;;;;;;107.90;27.37;;;;;;;;;;5054532;28;20177;-78
2022/12/10 03:50:44;;;;;;;105.70;27.43;;;;;;;;;;5053985;28;20174;-78
2022/12/10 03:53:10;;;;;;;101.47;26.57;;;;;;;;;;5045991;28;20596;-78
2022/12/10 03:55:35;;;;;;;72.90;28.23;;;;;;;;;;5055797;28;20666;-79
2022/12/10 03:58:00;;;;;;;93.67;27.00;;;;;;;;;;5047993;28;20170;-79
2022/12/10 04:00:25;;;;;;;94.90;26.57;;;;;;;;;;5034300;28;20213;-78
2022/12/10 04:02:51;;;;;;;107.80;26.50;;;;;;;;;;5053197;28;20217;-78
2022/12/10 04:05:16;;;;;;;71.90;27.57;;;;;;;;;;5054616;28;20271;-78
2022/12/10 04:07:41;;;;;;;87.97;27.63;;;;;;;;;;5057186;28;20256;-78
2022/12/10 04:10:07;;;;;;;105.57;28.63;;;;;;;;;;5042937;23;20247;-71
2022/12/10 04:12:32;;;;;;;135.03;29.70;;;;;;;;;;5030162;28;20655;-71
2022/12/10 04:17:41;;;;;;;164.53;30.30;;;;;;;;;;5052186;28;20570;-71
2022/12/10 04:26:51;;;;;;;97.03;28.27;;;;;;;;;;5033347;28;20233;-72
2022/12/10 04:28:20;;;;;;;113.97;28.30;;;;;;;;;;5049820;28;20183;-72
2022/12/10 04:30:45;;;;;;;97.60;28.33;;;;;;;;;;5051175;28;20197;-72
2022/12/10 04:33:10;;;;;;;89.00;25.57;;;;;;;;;;5055254;28;20209;-72
2022/12/10 04:35:35;;;;;;;97.90;28.60;;;;;;;;;;5033932;28;20537;-71
2022/12/10 04:38:00;;;;;;;87.53;27.43;;;;;;;;;;5053228;28;20182;-71
2022/12/10 04:40:26;;;;;;;81.10;25.93;;;;;;;;;;5052901;28;20197;-72
2022/12/10 04:42:51;;;;;;;88.37;26.40;;;;;;;;;;5051472;28;20179;-71
2022/12/10 04:45:16;;;;;;;85.53;25.60;;;;;;;;;;5051329;28;20193;-71
2022/12/10 04:47:41;;;;;;;92.53;23.27;;;;;;;;;;5050414;28;20178;-72
2022/12/10 04:50:07;;;;;;;66.47;23.80;;;;;;;;;;5051656;28;20607;-71
2022/12/10 04:52:32;;;;;;;79.83;25.37;;;;;;;;;;5049971;28;20170;-71
2022/12/10 04:54:57;;;;;;;80.00;25.17;;;;;;;;;;5056270;28;20181;-71
2022/12/10 04:57:22;;;;;;;89.03;25.40;;;;;;;;;;5053086;28;20192;-71
2022/12/10 04:59:47;;;;;;;82.83;26.00;;;;;;;;;;5049686;28;20236;-71
2022/12/10 05:02:13;;;;;;;99.03;25.73;;;;;;;;;;5052856;28;20193;-72
2022/12/10 05:04:38;;;;;;;91.90;24.10;;;;;;;;;;5051163;28;20194;-73
2022/12/10 05:07:03;;;;;;;79.47;23.37;;;;;;;;;;5033307;28;20765;-72
2022/12/10 05:09:28;;;;;;;92.43;25.77;;;;;;;;;;5049319;28;20209;-72
2022/12/10 05:11:54;;;;;;;117.83;27.57;;;;;;;;;;5050526;28;20173;-73
2022/12/10 05:14:19;;;;;;;90.67;24.97;;;;;;;;;;5049506;28;20263;-72
2022/12/10 05:16:44;;;;;;;82.27;24.97;;;;;;;;;;5026943;28;20177;-73
2022/12/10 05:19:10;;;;;;;73.07;23.13;;;;;;;;;;5043339;28;20209;-72
2022/12/10 05:24:19;;;;;;;73.57;22.90;;;;;;;;;;5042574;28;20702;-71
2022/12/10 05:26:44;;;;;;;75.90;24.30;;;;;;;;;;5051029;28;20169;-71
2022/12/10 05:29:09;;;;;;;71.50;20.03;;;;;;;;;;5048870;28;20524;-74
2022/12/10 05:31:35;;;;;;;54.13;19.80;;;;;;;;;;5055821;28;20169;-71
2022/12/10 05:34:00;;;;;;;76.97;23.20;;;;;;;;;;5053327;28;20181;-73
2022/12/10 05:36:26;;;;;;;67.10;22.00;;;;;;;;;;5054607;28;20200;-71
2022/12/10 05:38:53;;;;;;;78.73;24.03;;;;;;;;;;5038317;28;20216;-71
2022/12/10 05:41:19;;;;;;;114.80;26.40;;;;;;;;;;5060470;28;20188;-71
2022/12/10 05:43:44;;;;;;;101.93;23.43;;;;;;;;;;5025071;28;20639;-70
2022/12/10 05:46:11;;;;;;;83.60;24.20;;;;;;;;;;5053622;28;20189;-71
2022/12/10 05:48:37;;;;;;;71.23;21.60;;;;;;;;;;5033953;28;20177;-71
2022/12/10 05:51:03;;;;;;;58.37;20.30;;;;;;;;;;5032231;28;20494;-71
2022/12/10 05:53:29;;;;;;;58.03;20.23;;;;;;;;;;5037994;28;20189;-71
2022/12/10 05:56:04;;;;;;;52.80;21.13;;;;;;;;;;5051082;28;20192;-71
2022/12/10 05:58:29;;;;;;;66.20;20.57;;;;;;;;;;5043699;28;20722;-71
2022/12/10 06:00:58;;;;;;;69.40;18.87;;;;;;;;;;5050955;28;20293;-73
2022/12/10 06:03:24;;;;;;;61.13;19.97;;;;;;;;;;5049373;28;20184;-71
2022/12/10 06:05:49;;;;;;;75.00;20.63;;;;;;;;;;5056259;28;20283;-72
2022/12/10 06:08:15;;;;;;;63.43;21.63;;;;;;;;;;5049956;28;20269;-71
2022/12/10 06:10:40;;;;;;;59.17;22.13;;;;;;;;;;5028424;28;20739;-71
2022/12/10 06:13:05;;;;;;;61.63;20.67;;;;;;;;;;5040820;28;20186;-71
2022/12/10 06:15:32;;;;;;;58.07;21.63;;;;;;;;;;5050813;28;20241;-71
2022/12/10 06:17:57;;;;;;;67.27;21.87;;;;;;;;;;5050800;28;20174;-71
2022/12/10 06:20:23;;;;;;;73.30;24.20;;;;;;;;;;5050349;28;20786;-71
2022/12/10 06:22:48;;;;;;;93.37;25.17;;;;;;;;;;5047214;28;20193;-71
2022/12/10 06:25:13;;;;;;;65.73;23.23;;;;;;;;;;5032274;28;20201;-71
2022/12/10 06:27:38;;;;;;;57.43;23.03;;;;;;;;;;5032772;28;20261;-72
2022/12/10 06:30:04;;;;;;;74.07;22.03;;;;;;;;;;5050522;28;20224;-72
2022/12/10 06:32:29;;;;;;;69.73;24.20;;;;;;;;;;5049906;28;20264;-72
2022/12/10 06:34:54;;;;;;;63.07;23.33;;;;;;;;;;5050916;28;20170;-72
2022/12/10 06:37:19;;;;;;;68.53;23.63;;;;;;;;;;5051974;28;20613;-72
2022/12/10 06:39:45;;;;;;;77.47;25.23;;;;;;;;;;5054316;28;20284;-72
2022/12/10 06:42:10;;;;;;;69.67;24.80;;;;;;;;;;5054004;28;20251;-72
2022/12/10 06:44:35;;;;;;;67.57;24.03;;;;;;;;;;5054565;28;20205;-72
2022/12/10 06:47:00;;;;;;;78.67;26.13;;;;;;;;;;5036430;28;20560;-72
2022/12/10 06:49:25;;;;;;;79.60;24.77;;;;;;;;;;5036067;28;20198;-71
2022/12/10 06:51:51;;;;;;;70.07;24.33;;;;;;;;;;5052379;28;20655;-71
2022/12/10 06:54:16;;;;;;;77.97;25.37;;;;;;;;;;5045807;28;20193;-72
2022/12/10 06:56:41;;;;;;;78.43;24.80;;;;;;;;;;5053896;28;20185;-72
2022/12/10 06:59:06;;;;;;;64.93;20.77;;;;;;;;;;5045792;28;20197;-72
2022/12/10 07:01:32;;;;;;;68.57;24.20;;;;;;;;;;5047970;28;20219;-72
2022/12/10 07:03:57;;;;;;;96.47;28.27;;;;;;;;;;5052988;28;20202;-72
2022/12/10 07:06:23;;;;;;;53.17;23.60;;;;;;;;;;5054864;28;20182;-71
2022/12/10 07:08:48;;;;;;;80.40;24.97;;;;;;;;;;5048044;28;20256;-72
2022/12/10 07:11:15;;;;;;;70.53;22.07;;;;;;;;;;5034070;28;20407;-72
2022/12/10 07:13:40;;;;;;;57.70;22.37;;;;;;;;;;5052821;28;20315;-72
2022/12/10 07:16:13;;;;;;;70.87;23.77;;;;;;;;;;5053266;28;20253;-72
2022/12/10 07:18:38;;;;;;;58.17;21.47;;;;;;;;;;5053100;28;20549;-72
2022/12/10 07:21:12;;;;;;;85.20;24.67;;;;;;;;;;5047656;28;20194;-72
2022/12/10 07:23:37;;;;;;;82.73;25.40;;;;;;;;;;5052965;28;20192;-72
2022/12/10 07:26:02;;;;;;;56.20;24.37;;;;;;;;;;5053716;28;20182;-72
2022/12/10 07:28:28;;;;;;;105.47;26.90;;;;;;;;;;5052660;28;20174;-72
2022/12/10 07:30:59;;;;;;;50.47;21.83;;;;;;;;;;5052462;28;20193;-72
2022/12/10 07:33:24;;;;;;;61.47;21.63;;;;;;;;;;5051374;28;20169;-72
2022/12/10 07:35:50;;;;;;;57.67;21.97;;;;;;;;;;5035773;28;20673;-71
2022/12/10 07:38:15;;;;;;;65.13;20.90;;;;;;;;;;5052474;28;20185;-72
2022/12/10 07:40:40;;;;;;;60.43;21.93;;;;;;;;;;5034839;28;20198;-72
2022/12/10 07:43:05;;;;;;;71.23;24.97;;;;;;;;;;5034967;28;20174;-71
2022/12/10 07:45:30;;;;;;;70.83;22.97;;;;;;;;;;5053024;28;20197;-72
2022/12/10 07:47:56;;;;;;;68.60;22.33;;;;;;;;;;5035190;28;20186;-72
2022/12/10 07:50:21;;;;;;;70.70;23.03;;;;;;;;;;5053406;28;20702;-72
2022/12/10 07:52:46;;;;;;;55.23;20.77;;;;;;;;;;5050847;28;20525;-72
2022/12/10 07:55:11;;;;;;;55.47;21.37;;;;;;;;;;5052874;28;20182;-72
2022/12/10 07:57:36;;;;;;;68.13;24.03;;;;;;;;;;5052452;28;20268;-72
2022/12/10 08:00:02;;;;;;;76.70;23.77;;;;;;;;;;5034295;28;20239;-72
2022/12/10 08:02:28;;;;;;;71.13;25.50;;;;;;;;;;5027952;28;20175;-72
2022/12/10 08:04:53;;;;;;;60.97;22.47;;;;;;;;;;5051649;28;20193;-71
2022/12/10 08:07:18;;;;;;;49.43;21.97;;;;;;;;;;5053486;28;20177;-72
2022/12/10 08:09:43;;;;;;;68.87;21.97;;;;;;;;;;5051057;28;20220;-72
2022/12/10 08:12:08;;;;;;;65.10;21.43;;;;;;;;;;5051646;28;20196;-72
2022/12/10 08:14:34;;;;;;;60.73;22.53;;;;;;;;;;5034663;28;20181;-72
2022/12/10 08:16:59;;;;;;;69.43;23.07;;;;;;;;;;5036500;28;20182;-72
2022/12/10 08:19:24;;;;;;;75.00;23.47;;;;;;;;;;5036613;28;20580;-72
2022/12/10 08:21:49;;;;;;;64.53;22.73;;;;;;;;;;5035697;28;20182;-72
2022/12/10 08:24:15;;;;;;;75.67;23.50;;;;;;;;;;5052865;28;20887;-72
2022/12/10 08:26:40;;;;;;;59.57;22.00;;;;;;;;;;5054704;28;20644;-72
2022/12/10 08:29:05;;;;;;;60.13;22.07;;;;;;;;;;5056086;28;20202;-72
2022/12/10 08:31:31;;;;;;;58.47;22.80;;;;;;;;;;5037964;28;20231;-72
2022/12/10 08:33:56;;;;;;;70.50;23.90;;;;;;;;;;5038099;28;20180;-72
2022/12/10 08:36:21;;;;;;;72.87;23.07;;;;;;;;;;5049461;28;20659;-72
2022/12/10 08:38:47;;;;;;;69.37;21.10;;;;;;;;;;5039005;28;20235;-72
2022/12/10 08:41:17;;;;;;;55.60;20.97;;;;;;;;;;5052618;28;20189;-72
2022/12/10 08:43:42;;;;;;;55.00;20.83;;;;;;;;;;5036430;28;20655;-72
2022/12/10 08:46:08;;;;;;;52.07;18.97;;;;;;;;;;5053941;28;20177;-72
2022/12/10 08:48:34;;;;;;;57.17;20.87;;;;;;;;;;5052671;28;20639;-72
2022/12/10 08:51:00;;;;;;;67.63;22.67;;;;;;;;;;5051798;28;20247;-72
2022/12/10 08:53:25;;;;;;;77.90;22.90;;;;;;;;;;5037680;28;20300;-72
2022/12/10 08:55:51;;;;;;;59.80;20.57;;;;;;;;;;5047687;28;20182;-71
2022/12/10 08:58:16;;;;;;;62.67;22.27;;;;;;;;;;5051995;28;20263;-72
2022/12/10 09:00:41;;;;;;;63.37;21.67;;;;;;;;;;5047651;28;20193;-72
2022/12/10 09:03:08;;;;;;;54.87;20.23;;;;;;;;;;5051870;28;20719;-71
2022/12/10 09:05:34;;;;;;;61.23;21.43;;;;;;;;;;5052077;28;20580;-71
2022/12/10 09:07:59;;;;;;;65.00;21.20;;;;;;;;;;5050924;28;20174;-72
2022/12/10 09:10:24;;;;;;;61.10;22.30;;;;;;;;;;5047815;28;20201;-72
2022/12/10 09:12:49;;;;;;;63.87;22.30;;;;;;;;;;5028068;28;20561;-71
2022/12/10 09:15:14;;;;;;;77.43;21.03;;;;;;;;;;5032874;28;20225;-72
2022/12/10 09:17:40;;;;;;;55.33;18.70;;;;;;;;;;5051824;28;20176;-72
2022/12/10 09:20:05;;;;;;;63.60;21.10;;;;;;;;;;5051326;28;20279;-72
2022/12/10 09:22:31;;;;;;;62.73;21.67;;;;;;;;;;5049811;28;20180;-72
2022/12/10 09:24:56;;;;;;;62.50;21.90;;;;;;;;;;5049092;28;20675;-72
2022/12/10 09:27:21;;;;;;;56.47;20.43;;;;;;;;;;5051086;28;20189;-72
2022/12/10 09:29:46;;;;;;;66.87;22.43;;;;;;;;;;5045825;28;20193;-72
2022/12/10 09:32:12;;;;;;;71.20;21.57;;;;;;;;;;5049455;28;20215;-72
2022/12/10 09:34:37;;;;;;;70.33;23.07;;;;;;;;;;5050472;28;20338;-72
2022/12/10 09:37:02;;;;;;;71.93;24.83;;;;;;;;;;5051909;28;20173;-72
2022/12/10 09:39:27;;;;;;;63.60;23.80;;;;;;;;;;5049837;28;20233;-72
2022/12/10 09:42:09;;;;;;;64.43;23.57;;;;;;;;;;5051098;28;20170;-72
2022/12/10 09:44:40;;;;;;;66.93;24.13;;;;;;;;;;5051196;28;20205;-72
2022/12/10 09:47:08;;;;;;;64.00;23.23;;;;;;;;;;5047675;28;20306;-72
2022/12/10 09:49:36;;;;;;;67.77;22.57;;;;;;;;;;5032283;28;20704;-72
2022/12/10 09:52:02;;;;;;;65.60;24.30;;;;;;;;;;5049645;28;20544;-72
2022/12/10 09:54:32;;;;;;;62.80;22.57;;;;;;;;;;5033684;28;20651;-72
2022/12/10 09:56:58;;;;;;;66.03;21.87;;;;;;;;;;5051238;28;20174;-72
2022/12/10 09:59:23;;;;;;;63.73;21.57;;;;;;;;;;5029691;28;20202;-72
2022/12/10 10:01:50;;;;;;;66.50;21.67;;;;;;;;;;5048560;28;20243;-72
2022/12/10 10:04:15;;;;;;;67.53;22.60;;;;;;;;;;5032501;28;20280;-72
2022/12/10 10:06:41;;;;;;;65.27;21.00;;;;;;;;;;5043230;28;20173;-71
2022/12/10 10:11:35;;;;;;;56.20;20.00;;;;;;;;;;4998431;28;20238;-77
2022/12/10 10:14:11;;;;;;;59.03;20.93;;;;;;;;;;4997974;28;20211;-77
2022/12/10 10:16:45;;;;;;;56.30;20.03;;;;;;;;;;5005331;28;20183;-77
2022/12/10 10:19:17;;;;;;;58.87;20.37;;;;;;;;;;5001125;28;21121;-77
2022/12/10 10:21:44;;;;;;;65.83;20.57;;;;;;;;;;4994027;28;20189;-77
2022/12/10 10:24:13;;;;;;;61.97;21.20;;;;;;;;;;5014069;28;20270;-79
2022/12/10 10:26:38;;;;;;;58.60;20.70;;;;;;;;;;4995037;28;20202;-79
2022/12/10 10:29:08;;;;;;;61.97;19.23;;;;;;;;;;5001442;28;20695;-79
2022/12/10 10:31:35;;;;;;;58.13;19.43;;;;;;;;;;5011942;28;20210;-79
2022/12/10 10:34:01;;;;;;;58.93;20.20;;;;;;;;;;5024340;28;20215;-79
2022/12/10 10:36:29;;;;;;;48.67;20.33;;;;;;;;;;5004628;28;20176;-79
2022/12/10 10:38:54;;;;;;;55.33;19.37;;;;;;;;;;5014008;28;20544;-79
2022/12/10 10:41:19;;;;;;;58.03;20.40;;;;;;;;;;5000050;28;20202;-77
2022/12/10 10:43:45;;;;;;;60.10;19.97;;;;;;;;;;4993841;28;20175;-79
2022/12/10 10:46:10;;;;;;;69.73;20.57;;;;;;;;;;4999720;28;20182;-79
2022/12/10 10:48:36;;;;;;;72.23;22.10;;;;;;;;;;4998802;28;20179;-77
2022/12/10 10:51:19;;;;;;;65.17;21.60;;;;;;;;;;4998400;28;20218;-79
2022/12/10 10:53:46;;;;;;;64.50;21.30;;;;;;;;;;4998774;28;20179;-79
2022/12/10 10:56:11;;;;;;;60.50;20.67;;;;;;;;;;4986810;28;20180;-79
2022/12/10 10:58:45;;;;;;;69.17;22.27;;;;;;;;;;4997551;28;20206;-79
2022/12/10 11:01:10;;;;;;;68.70;22.33;;;;;;;;;;4993795;28;20205;-79
2022/12/10 11:03:36;;;;;;;65.37;20.13;;;;;;;;;;5010880;28;20179;-79
2022/12/10 11:06:04;;;;;;;64.07;20.97;;;;;;;;;;5005397;28;20242;-79
2022/12/10 11:08:31;;;;;;;66.93;21.63;;;;;;;;;;5000896;28;20328;-79
2022/12/10 11:11:02;;;;;;;57.83;20.20;;;;;;;;;;5009978;28;20203;-79
2022/12/10 11:13:32;;;;;;;54.20;20.73;;;;;;;;;;5001205;28;20234;-79
2022/12/10 11:15:57;;;;;;;64.80;19.83;;;;;;;;;;4995880;28;20558;-79
2022/12/10 11:18:22;;;;;;;55.20;19.27;;;;;;;;;;4995571;28;20188;-77
2022/12/10 11:20:56;;;;;;;58.20;20.23;;;;;;;;;;5001092;28;20626;-78
2022/12/10 11:23:21;;;;;;;60.47;21.03;;;;;;;;;;4998400;28;20214;-81
2022/12/10 11:25:56;;;;;;;72.67;20.10;;;;;;;;;;5002748;28;20211;-78
2022/12/10 11:28:22;;;;;;;60.13;19.07;;;;;;;;;;4997179;28;20179;-78
2022/12/10 11:30:59;;;;;;;63.47;19.27;;;;;;;;;;4996789;28;20281;-81
2022/12/10 11:33:35;;;;;;;60.93;18.27;;;;;;;;;;4999669;28;20180;-78
2022/12/10 11:36:32;;;;;;;60.87;18.63;;;;;;;;;;5002909;28;20271;-78
2022/12/10 11:39:00;;;;;;;51.67;17.77;;;;;;;;;;4972150;28;20187;-78
2022/12/10 11:41:32;;;;;;;57.27;17.80;;;;;;;;;;5001939;28;20555;-78
2022/12/10 11:44:00;;;;;;;53.90;19.93;;;;;;;;;;5006180;28;20199;-79
2022/12/10 11:46:25;;;;;;;54.67;19.00;;;;;;;;;;5009232;28;20190;-79
2022/12/10 11:48:50;;;;;;;55.10;17.20;;;;;;;;;;5003498;28;20174;-79
2022/12/10 11:51:20;;;;;;;53.63;19.80;;;;;;;;;;4996991;28;20227;-79
2022/12/10 11:53:54;;;;;;;52.67;19.60;;;;;;;;;;5006007;28;20179;-79
2022/12/10 11:56:25;;;;;;;47.80;17.97;;;;;;;;;;5002359;28;20184;-79
2022/12/10 11:58:56;;;;;;;55.70;18.53;;;;;;;;;;5015858;28;20539;-80
2022/12/10 12:01:40;;;;;;;51.80;19.00;;;;;;;;;;4995181;28;20215;-79
2022/12/10 12:04:15;;;;;;;47.87;17.10;;;;;;;;;;5002448;28;20207;-79
2022/12/10 12:06:40;;;;;;;50.37;18.37;;;;;;;;;;4999562;28;20588;-80
2022/12/10 12:09:11;;;;;;;44.03;18.03;;;;;;;;;;4999250;28;20262;-79
2022/12/10 12:12:03;;;;;;;53.27;18.83;;;;;;;;;;4994316;28;20203;-79
2022/12/10 12:14:39;;;;;;;47.73;17.87;;;;;;;;;;4988043;28;20176;-79
2022/12/10 12:17:20;;;;;;;47.47;18.33;;;;;;;;;;5000385;28;20185;-79
2022/12/10 12:19:48;;;;;;;43.20;16.70;;;;;;;;;;4997437;28;20207;-79
2022/12/10 12:22:24;;;;;;;51.53;17.53;;;;;;;;;;4999678;28;20204;-79
2022/12/10 12:24:51;;;;;;;46.07;17.57;;;;;;;;;;5008450;28;20252;-79
2022/12/10 12:27:28;;;;;;;47.50;17.50;;;;;;;;;;4996698;28;20657;-79
2022/12/10 12:30:05;;;;;;;51.60;18.10;;;;;;;;;;4996679;28;20629;-79
2022/12/10 12:32:44;;;;;;;47.83;17.87;;;;;;;;;;5000218;28;20176;-79
2022/12/10 12:35:28;;;;;;;53.83;16.83;;;;;;;;;;5004414;28;20206;-79
2022/12/10 12:37:59;;;;;;;53.33;17.57;;;;;;;;;;5001237;28;20187;-79
2022/12/10 12:40:29;;;;;;;50.30;17.30;;;;;;;;;;4998607;28;20231;-79
2022/12/10 12:42:58;;;;;;;50.43;17.90;;;;;;;;;;5002002;28;20212;-79
2022/12/10 12:45:32;;;;;;;63.33;18.27;;;;;;;;;;5008758;28;20230;-79
2022/12/10 12:48:02;;;;;;;55.67;18.33;;;;;;;;;;5002292;28;20179;-79
2022/12/10 12:50:46;;;;;;;52.77;18.07;;;;;;;;;;5008805;28;20275;-79
2022/12/10 12:53:15;;;;;;;45.27;17.13;;;;;;;;;;4998274;28;20655;-79
2022/12/10 12:55:51;;;;;;;59.27;18.13;;;;;;;;;;5006571;28;20180;-79
2022/12/10 12:58:45;;;;;;;51.70;16.80;;;;;;;;;;5004398;28;20190;-79
2022/12/10 13:01:20;;;;;;;53.90;17.50;;;;;;;;;;4926946;28;20221;-78
2022/12/10 13:03:47;;;;;;;59.53;19.07;;;;;;;;;;4993910;28;20177;-79
2022/12/10 13:06:15;;;;;;;49.30;18.03;;;;;;;;;;5002474;28;20641;-79
2022/12/10 13:08:45;;;;;;;42.17;16.07;;;;;;;;;;4998784;28;20564;-79
2022/12/10 13:11:10;;;;;;;44.27;16.03;;;;;;;;;;4996642;28;20218;-79
2022/12/10 13:13:37;;;;;;;49.10;17.30;;;;;;;;;;5000059;28;20563;-80
2022/12/10 13:16:21;;;;;;;56.60;19.00;;;;;;;;;;4999422;28;20486;-78
2022/12/10 13:18:46;;;;;;;49.00;19.77;;;;;;;;;;5012464;28;20182;-78
2022/12/10 13:21:26;;;;;;;49.10;18.47;;;;;;;;;;5009650;28;20191;-78
2022/12/10 13:23:55;;;;;;;56.50;18.20;;;;;;;;;;5004965;28;20215;-78
2022/12/10 13:26:23;;;;;;;51.67;18.93;;;;;;;;;;4997929;28;20175;-80
2022/12/10 13:28:50;;;;;;;52.40;19.77;;;;;;;;;;4999005;28;20171;-80
2022/12/10 13:31:15;;;;;;;55.33;19.97;;;;;;;;;;4998795;28;20199;-78
2022/12/10 13:33:46;;;;;;;61.50;20.73;;;;;;;;;;4999589;28;20213;-78
2022/12/10 13:36:11;;;;;;;62.57;21.67;;;;;;;;;;4999589;28;20547;-78
2022/12/10 13:38:41;;;;;;;56.47;20.90;;;;;;;;;;4997904;28;20194;-78
2022/12/10 13:46:54;;;;;;;56.13;20.60;;;;;;;;;;4995885;28;20723;-78
2022/12/10 13:49:21;;;;;;;58.03;20.83;;;;;;;;;;5004562;28;20237;-78
2022/12/10 13:51:55;;;;;;;51.30;19.60;;;;;;;;;;4996020;28;20409;-78
2022/12/10 13:54:39;;;;;;;58.83;20.57;;;;;;;;;;4991720;28;20199;-78
2022/12/10 13:57:16;;;;;;;53.73;19.93;;;;;;;;;;5002382;28;20233;-77
2022/12/10 13:59:42;;;;;;;67.43;23.40;;;;;;;;;;4991461;28;20195;-78
2022/12/10 14:02:25;;;;;;;61.50;24.37;;;;;;;;;;4996690;28;20187;-80
2022/12/10 14:05:09;;;;;;;55.87;21.97;;;;;;;;;;5001580;28;20688;-77
2022/12/10 14:07:34;;;;;;;59.47;21.97;;;;;;;;;;4997386;28;20187;-78
2022/12/10 14:10:00;;;;;;;65.20;21.07;;;;;;;;;;4990867;28;20207;-77
2022/12/10 14:12:26;;;;;;;69.30;22.90;;;;;;;;;;4992288;28;20185;-78
2022/12/10 14:14:57;;;;;;;68.43;21.40;;;;;;;;;;4997179;28;20179;-77
2022/12/10 14:17:30;;;;;;;65.50;21.97;;;;;;;;;;5010857;28;20218;-79
2022/12/10 14:19:56;;;;;;;64.57;22.20;;;;;;;;;;4985779;28;20314;-80
2022/12/10 14:22:32;;;;;;;62.07;21.13;;;;;;;;;;4990280;28;20215;-79
2022/12/10 14:24:59;;;;;;;59.80;20.57;;;;;;;;;;4998985;28;20191;-79
2022/12/10 14:27:25;;;;;;;63.93;22.63;;;;;;;;;;4988848;28;20190;-78
2022/12/10 14:29:51;;;;;;;68.20;23.03;;;;;;;;;;4982574;28;20263;-79
2022/12/10 14:32:19;;;;;;;63.03;21.07;;;;;;;;;;4992608;28;20176;-78
2022/12/10 14:34:50;;;;;;;52.27;19.40;;;;;;;;;;4992491;28;20176;-78
2022/12/10 14:37:16;;;;;;;54.60;19.23;;;;;;;;;;4990117;28;20179;-78
2022/12/10 14:39:42;;;;;;;54.07;19.23;;;;;;;;;;4988638;28;20234;-78